Aidamar — ICSJ — position and weather

sailwx.info

Track history (hours):
 
Tides and Currents Weather Stations Pressure Air Temp Water Temp Dewpoint Dewpoint Depression Visibility Wind Speed Wind Dir Waves Ship Positions

Aidamar

Last reported at 2014-Aug-20 14:25 UTC. Time now 2014-Aug-20 14:39 UTC.
Position N 60°05' E 024°54'.

Length 253 m; draft 7.3 m.

Type: Passenger vessel. MMSI: 247312900.

Date/timePositionNaut miles runAvg speedWind from/ knotsBaromVisibWave heightAir tempDewpointWater temp
2014-Aug-20 14:25N 60°05' E 024°54'4 3.9
2014-Aug-20 13:26N 60°09' E 024°55'0 0.0
2014-Aug-20 12:26N 60°09' E 024°55'0 0.0
2014-Aug-20 10:31N 60°09' E 024°55'0 0.0
2014-Aug-20 09:25N 60°09' E 024°55'0 0.0
2014-Aug-20 08:22N 60°09' E 024°55'0 0.0
2014-Aug-20 07:33N 60°09' E 024°55'0 0.0
2014-Aug-20 06:21N 60°09' E 024°55'0 0.0
2014-Aug-20 05:33N 60°09' E 024°55'6 6.3
2014-Aug-20 04:33N 60°03' E 024°54'5213.1
2014-Aug-20 00:33N 60°01' E 026°39'10413.0
2014-Aug-19 16:33N 59°57' E 030°07'2 1.9
2014-Aug-19 15:33N 59°57' E 030°11'0 0.0
2014-Aug-19 14:29N 59°57' E 030°11'0 0.0
2014-Aug-19 13:28N 59°57' E 030°11'0 0.0
2014-Aug-19 12:33N 59°57' E 030°11'0 0.0
2014-Aug-19 11:30N 59°57' E 030°11'0 0.0
2014-Aug-19 10:33N 59°57' E 030°11'0 0.0
2014-Aug-19 09:10N 59°57' E 030°11'0 0.0
2014-Aug-19 08:29N 59°57' E 030°11'0 0.0
2014-Aug-19 07:32N 59°57' E 030°11'0 0.0
2014-Aug-19 06:32N 59°57' E 030°11'0 0.0
2014-Aug-19 05:31N 59°57' E 030°11'0 0.0
2014-Aug-19 04:33N 59°57' E 030°11'0 0.0
2014-Aug-19 03:33N 59°57' E 030°11'6 5.6
2014-Aug-19 02:33N 59°55' E 030°01'8013.3
2014-Aug-18 20:31N 60°03' E 027°21'1515.0
2014-Aug-18 19:33N 59°59' E 026°53'1515.4
2014-Aug-18 18:33N 59°57' E 026°23'88 5.5
2014-Aug-18 02:33N 59°30' E 023°37'31014.1
2014-Aug-17 04:32N 55°59' E 016°32'2416.1
2014-Aug-17 03:03N 55°48' E 015°55'816.6
2014-Aug-17 02:33N 55°44' E 015°42'1716.6
2014-Aug-17 01:33N 55°36' E 015°16'1616.4
2014-Aug-17 00:33N 55°28' E 014°51'1616.2
2014-Aug-16 23:33N 55°17' E 014°30'3615.4
2014-Aug-16 21:14N 54°56' E 013°39'1815.9
2014-Aug-16 20:05N 54°50' E 013°09'915.9
2014-Aug-16 19:33N 54°47' E 012°55'1615.8
2014-Aug-16 18:31N 54°40' E 012°30'1515.5
2014-Aug-16 17:32N 54°28' E 012°13'1414.3
2014-Aug-16 16:33N 54°15' E 012°05'5 4.1
2014-Aug-16 15:28N 54°11' E 012°06'0 0.0
2014-Aug-16 14:28N 54°11' E 012°06'0 0.0
2014-Aug-16 13:31N 54°11' E 012°06'0 0.0
2014-Aug-16 12:31N 54°11' E 012°06'0 0.0
2014-Aug-16 11:31N 54°11' E 012°06'0 0.0
2014-Aug-16 10:25N 54°11' E 012°06'0 0.0
2014-Aug-16 09:28N 54°11' E 012°06'0 0.0
2014-Aug-16 08:13N 54°11' E 012°06'0 0.0
2014-Aug-16 07:31N 54°11' E 012°06'0 0.0
2014-Aug-16 05:25N 54°11' E 012°06'0 0.5
2014-Aug-16 04:33N 54°10' E 012°06'4 4.4
2014-Aug-16 03:33N 54°14' E 012°03'1211.7
2014-Aug-16 02:33N 54°26' E 012°00'1313.5
2014-Aug-16 01:33N 54°36' E 012°15'1515.3
2014-Aug-16 00:33N 54°45' E 012°37'1515.3
2014-Aug-15 23:33N 54°51' E 013°01'1515.4
2014-Aug-15 22:33N 54°56' E 013°26'1515.3
2014-Aug-15 21:33N 55°02' E 013°51'1615.3
2014-Aug-15 20:32N 55°09' E 014°15'1515.5
2014-Aug-15 19:33N 55°22' E 014°30'1717.3
2014-Aug-15 18:33N 55°32' E 014°54'2018.4
2014-Aug-15 17:30N 55°42' E 015°24'1718.5
2014-Aug-15 16:33N 55°51' E 015°50'1615.8
2014-Aug-15 15:33N 55°60' E 016°14'7013.9
2014-Aug-15 10:33N 57°00' E 017°16'4 3.9
2014-Aug-15 09:33N 57°03' E 017°20'5 4.9
2014-Aug-15 08:33N 57°07' E 017°25'1515.6
2014-Aug-15 07:33N 57°22' E 017°36'125 9.3
2014-Aug-14 18:08N 59°24' E 018°26'5 6.2
2014-Aug-14 17:16N 59°22' E 018°16'6 8.3
2014-Aug-14 16:33N 59°19' E 018°06'0 0.0
2014-Aug-14 15:31N 59°19' E 018°06'0 0.0
2014-Aug-14 14:31N 59°19' E 018°06'0 0.0
2014-Aug-14 13:31N 59°19' E 018°06'0 0.0
2014-Aug-14 12:31N 59°19' E 018°06'0 0.0
2014-Aug-14 11:31N 59°19' E 018°06'0 0.0
2014-Aug-14 10:31N 59°19' E 018°06'0 0.0
2014-Aug-14 09:31N 59°19' E 018°06'0 0.0
2014-Aug-14 08:31N 59°19' E 018°06'0 0.0
2014-Aug-14 07:33N 59°19' E 018°06'8 7.7
2014-Aug-14 06:33N 59°23' E 018°19'15312.5
2014-Aug-13 18:21N 59°38' E 023°20'5513.8
2014-Aug-13 14:23N 60°05' E 024°54'4 3.7
2014-Aug-13 13:23N 60°09' E 024°55'0 0.0
2014-Aug-13 12:26N 60°09' E 024°55'0 0.0
2014-Aug-13 11:29N 60°09' E 024°55'0 0.0
2014-Aug-13 10:32N 60°09' E 024°55'0 0.0
2014-Aug-13 09:33N 60°09' E 024°55'0 0.0
2014-Aug-13 08:33N 60°09' E 024°55'0 0.0
2014-Aug-13 07:32N 60°09' E 024°55'0 0.0
2014-Aug-13 06:25N 60°09' E 024°55'0 0.0
2014-Aug-13 05:33N 60°09' E 024°55'48 9.7
2014-Aug-13 00:33N 60°01' E 026°31'10613.3
2014-Aug-12 16:33N 59°56' E 030°03'4 0.3
2014-Aug-12 03:33N 59°57' E 030°11'4 4.4
2014-Aug-12 02:33N 59°56' E 030°03'7913.0
2014-Aug-11 20:30N 60°04' E 027°26'1515.9
2014-Aug-11 19:34N 59°59' E 026°58'1616.0
2014-Aug-11 18:34N 59°57' E 026°26'1616.2
2014-Aug-11 17:33N 59°53' E 025°55'1616.2
2014-Aug-11 16:33N 59°48' E 025°24'44 3.3
2014-Aug-11 03:14N 59°30' E 024°05'1115.4
2014-Aug-11 02:31N 59°30' E 023°43'1715.3
2014-Aug-11 01:25N 59°29' E 023°10'1415.4
2014-Aug-11 00:32N 59°26' E 022°45'  
Track history (hours):
 
Tides and Currents Weather Stations Pressure Air Temp Water Temp Dewpoint Dewpoint Depression Visibility Wind Speed Wind Dir Waves Ship Positions

Aidamar

Last reported at 2014-Aug-20 14:25 UTC. Time now 2014-Aug-20 14:39 UTC.
Position N 60°05' E 024°54'.

Length 253 m; draft 7.3 m.

Type: Passenger vessel. MMSI: 247312900.

Date/timePositionNaut miles runAvg speedWind from/ knotsBaromVisibWave heightAir tempDewpointWater temp
2014-Aug-20 14:25N 60°05' E 024°54'4 3.9
2014-Aug-20 13:26N 60°09' E 024°55'0 0.0
2014-Aug-20 12:26N 60°09' E 024°55'0 0.0
2014-Aug-20 10:31N 60°09' E 024°55'0 0.0
2014-Aug-20 09:25N 60°09' E 024°55'0 0.0
2014-Aug-20 08:22N 60°09' E 024°55'0 0.0
2014-Aug-20 07:33N 60°09' E 024°55'0 0.0
2014-Aug-20 06:21N 60°09' E 024°55'0 0.0
2014-Aug-20 05:33N 60°09' E 024°55'6 6.3
2014-Aug-20 04:33N 60°03' E 024°54'5213.1
2014-Aug-20 00:33N 60°01' E 026°39'10413.0
2014-Aug-19 16:33N 59°57' E 030°07'2 1.9
2014-Aug-19 15:33N 59°57' E 030°11'0 0.0
2014-Aug-19 14:29N 59°57' E 030°11'0 0.0
2014-Aug-19 13:28N 59°57' E 030°11'0 0.0
2014-Aug-19 12:33N 59°57' E 030°11'0 0.0
2014-Aug-19 11:30N 59°57' E 030°11'0 0.0
2014-Aug-19 10:33N 59°57' E 030°11'0 0.0
2014-Aug-19 09:10N 59°57' E 030°11'0 0.0
2014-Aug-19 08:29N 59°57' E 030°11'0 0.0
2014-Aug-19 07:32N 59°57' E 030°11'0 0.0
2014-Aug-19 06:32N 59°57' E 030°11'0 0.0
2014-Aug-19 05:31N 59°57' E 030°11'0 0.0
2014-Aug-19 04:33N 59°57' E 030°11'0 0.0
2014-Aug-19 03:33N 59°57' E 030°11'6 5.6
2014-Aug-19 02:33N 59°55' E 030°01'8013.3
2014-Aug-18 20:31N 60°03' E 027°21'1515.0
2014-Aug-18 19:33N 59°59' E 026°53'1515.4
2014-Aug-18 18:33N 59°57' E 026°23'88 5.5
2014-Aug-18 02:33N 59°30' E 023°37'31014.1
2014-Aug-17 04:32N 55°59' E 016°32'2416.1
2014-Aug-17 03:03N 55°48' E 015°55'816.6
2014-Aug-17 02:33N 55°44' E 015°42'1716.6
2014-Aug-17 01:33N 55°36' E 015°16'1616.4
2014-Aug-17 00:33N 55°28' E 014°51'1616.2
2014-Aug-16 23:33N 55°17' E 014°30'3615.4
2014-Aug-16 21:14N 54°56' E 013°39'1815.9
2014-Aug-16 20:05N 54°50' E 013°09'915.9
2014-Aug-16 19:33N 54°47' E 012°55'1615.8
2014-Aug-16 18:31N 54°40' E 012°30'1515.5
2014-Aug-16 17:32N 54°28' E 012°13'1414.3
2014-Aug-16 16:33N 54°15' E 012°05'5 4.1
2014-Aug-16 15:28N 54°11' E 012°06'0 0.0
2014-Aug-16 14:28N 54°11' E 012°06'0 0.0
2014-Aug-16 13:31N 54°11' E 012°06'0 0.0
2014-Aug-16 12:31N 54°11' E 012°06'0 0.0
2014-Aug-16 11:31N 54°11' E 012°06'0 0.0
2014-Aug-16 10:25N 54°11' E 012°06'0 0.0
2014-Aug-16 09:28N 54°11' E 012°06'0 0.0
2014-Aug-16 08:13N 54°11' E 012°06'0 0.0
2014-Aug-16 07:31N 54°11' E 012°06'0 0.0
2014-Aug-16 05:25N 54°11' E 012°06'0 0.5
2014-Aug-16 04:33N 54°10' E 012°06'4 4.4
2014-Aug-16 03:33N 54°14' E 012°03'1211.7
2014-Aug-16 02:33N 54°26' E 012°00'1313.5
2014-Aug-16 01:33N 54°36' E 012°15'1515.3
2014-Aug-16 00:33N 54°45' E 012°37'1515.3
2014-Aug-15 23:33N 54°51' E 013°01'1515.4
2014-Aug-15 22:33N 54°56' E 013°26'1515.3
2014-Aug-15 21:33N 55°02' E 013°51'1615.3
2014-Aug-15 20:32N 55°09' E 014°15'1515.5
2014-Aug-15 19:33N 55°22' E 014°30'1717.3
2014-Aug-15 18:33N 55°32' E 014°54'2018.4
2014-Aug-15 17:30N 55°42' E 015°24'1718.5
2014-Aug-15 16:33N 55°51' E 015°50'1615.8
2014-Aug-15 15:33N 55°60' E 016°14'7013.9
2014-Aug-15 10:33N 57°00' E 017°16'4 3.9
2014-Aug-15 09:33N 57°03' E 017°20'5 4.9
2014-Aug-15 08:33N 57°07' E 017°25'1515.6
2014-Aug-15 07:33N 57°22' E 017°36'125 9.3
2014-Aug-14 18:08N 59°24' E 018°26'5 6.2
2014-Aug-14 17:16N 59°22' E 018°16'6 8.3
2014-Aug-14 16:33N 59°19' E 018°06'0 0.0
2014-Aug-14 15:31N 59°19' E 018°06'0 0.0
2014-Aug-14 14:31N 59°19' E 018°06'0 0.0
2014-Aug-14 13:31N 59°19' E 018°06'0 0.0
2014-Aug-14 12:31N 59°19' E 018°06'0 0.0
2014-Aug-14 11:31N 59°19' E 018°06'0 0.0
2014-Aug-14 10:31N 59°19' E 018°06'0 0.0
2014-Aug-14 09:31N 59°19' E 018°06'0 0.0
2014-Aug-14 08:31N 59°19' E 018°06'0 0.0
2014-Aug-14 07:33N 59°19' E 018°06'8 7.7
2014-Aug-14 06:33N 59°23' E 018°19'15312.5
2014-Aug-13 18:21N 59°38' E 023°20'5513.8
2014-Aug-13 14:23N 60°05' E 024°54'4 3.7
2014-Aug-13 13:23N 60°09' E 024°55'0 0.0
2014-Aug-13 12:26N 60°09' E 024°55'0 0.0
2014-Aug-13 11:29N 60°09' E 024°55'0 0.0
2014-Aug-13 10:32N 60°09' E 024°55'0 0.0
2014-Aug-13 09:33N 60°09' E 024°55'0 0.0
2014-Aug-13 08:33N 60°09' E 024°55'0 0.0
2014-Aug-13 07:32N 60°09' E 024°55'0 0.0
2014-Aug-13 06:25N 60°09' E 024°55'0 0.0
2014-Aug-13 05:33N 60°09' E 024°55'48 9.7
2014-Aug-13 00:33N 60°01' E 026°31'10613.3
2014-Aug-12 16:33N 59°56' E 030°03'4 0.3
2014-Aug-12 03:33N 59°57' E 030°11'4 4.4
2014-Aug-12 02:33N 59°56' E 030°03'7913.0
2014-Aug-11 20:30N 60°04' E 027°26'1515.9
2014-Aug-11 19:34N 59°59' E 026°58'1616.0
2014-Aug-11 18:34N 59°57' E 026°26'1616.2
2014-Aug-11 17:33N 59°53' E 025°55'1616.2
2014-Aug-11 16:33N 59°48' E 025°24'44 3.3
2014-Aug-11 03:14N 59°30' E 024°05'1115.4
2014-Aug-11 02:31N 59°30' E 023°43'1715.3
2014-Aug-11 01:25N 59°29' E 023°10'1415.4
2014-Aug-11 00:32N 59°26' E 022°45'  

Dump ship's entire track history